createdAt,value
2023-04-24T00:02:17.905Z,99563.91
2023-04-24T00:04:48.151Z,99570.94
2023-04-24T00:07:17.801Z,99577.97
2023-04-24T00:09:45.846Z,99586.75
2023-04-24T00:12:13.368Z,99590.28
2023-04-24T00:14:40.972Z,99591.16
2023-04-24T00:17:08.505Z,99593.78
2023-04-24T00:19:35.982Z,99593.78
2023-04-24T00:22:04.693Z,99607.00
2023-04-24T00:24:32.538Z,99593.78
2023-04-24T00:27:01.984Z,99598.16
2023-04-24T00:29:29.766Z,99605.22
2023-04-24T00:31:57.446Z,99606.94
2023-04-24T00:34:25.162Z,99597.25
2023-04-24T00:36:53.400Z,99594.59
2023-04-24T00:39:21.097Z,99581.38
2023-04-24T00:41:49.256Z,99590.19
2023-04-24T00:44:17.103Z,99571.66
2023-04-24T00:46:45.016Z,99562.84
2023-04-24T00:49:13.152Z,99561.06
2023-04-24T00:51:41.925Z,99559.31
2023-04-24T00:54:09.447Z,99551.41
2023-04-24T00:56:37.035Z,99539.09
2023-04-24T00:59:05.346Z,99536.47
2023-04-24T01:01:33.864Z,99534.69
2023-04-24T01:04:01.904Z,99547.03
2023-04-24T01:06:32.259Z,99541.72
2023-04-24T01:09:01.627Z,99543.50
2023-04-24T01:11:29.087Z,99544.38
2023-04-24T01:13:56.480Z,99554.06
2023-04-24T01:16:24.049Z,99555.81
2023-04-24T01:18:52.368Z,99573.47
2023-04-24T01:21:20.141Z,99570.78
2023-04-24T01:23:48.206Z,99577.81
2023-04-24T01:26:21.246Z,99571.63
2023-04-24T01:28:49.028Z,99576.06
2023-04-24T01:31:16.923Z,99569.88
2023-04-24T01:33:44.763Z,99582.22
2023-04-24T01:36:12.993Z,99593.66
2023-04-24T01:38:40.647Z,99589.25
2023-04-24T01:41:08.041Z,99595.41
2023-04-24T01:43:35.822Z,99591.88
2023-04-24T01:46:03.770Z,99600.69
2023-04-24T01:48:31.859Z,99599.78
2023-04-24T01:50:59.379Z,99608.59
2023-04-24T01:53:26.860Z,99598.91
2023-04-24T01:55:54.505Z,99593.63
2023-04-24T01:58:22.172Z,99604.19
2023-04-24T02:00:49.596Z,99608.59
2023-04-24T02:03:17.361Z,99611.22
2023-04-24T02:05:47.578Z,99614.75
2023-04-24T02:08:15.040Z,99616.50
2023-04-24T02:10:42.575Z,99623.53
2023-04-24T02:13:10.063Z,99628.81
2023-04-24T02:15:37.696Z,99637.63
2023-04-24T02:18:05.482Z,99649.13
2023-04-24T02:20:35.181Z,99650.03
2023-04-24T02:23:02.759Z,99673.81
2023-04-24T02:25:30.307Z,99705.59
2023-04-24T02:27:57.956Z,99726.72
2023-04-24T02:30:25.813Z,99709.13
2023-04-24T02:32:53.352Z,99701.19
2023-04-24T02:35:21.264Z,99687.09
2023-04-24T02:37:48.873Z,99685.34
2023-04-24T02:40:16.436Z,99673.88
2023-04-24T02:42:43.904Z,99680.94
2023-04-24T02:45:11.732Z,99678.28
2023-04-24T02:47:39.343Z,99685.34
2023-04-24T02:50:07.817Z,99688.88
2023-04-24T02:52:35.287Z,99664.22
2023-04-24T02:55:03.174Z,99642.19
2023-04-24T02:57:30.622Z,99610.47
2023-04-24T02:59:58.129Z,99587.56
2023-04-24T03:02:25.916Z,99555.88
2023-04-24T03:04:53.657Z,99525.06
2023-04-24T03:07:21.897Z,99496.06
2023-04-24T03:09:49.576Z,99470.59
2023-04-24T03:12:18.987Z,99477.63
2023-04-24T03:14:46.485Z,99487.34
2023-04-24T03:17:14.024Z,99497.03
2023-04-24T03:19:42.018Z,99511.13
2023-04-24T03:22:10.365Z,99516.41
2023-04-24T03:24:37.874Z,99518.19
2023-04-24T03:27:05.441Z,99538.41
2023-04-24T03:29:32.500Z,99542.81
2023-04-24T03:32:00.024Z,99544.59
2023-04-24T03:34:27.634Z,99555.13
2023-04-24T03:36:55.084Z,99557.78
2023-04-24T03:39:22.555Z,99543.72
2023-04-24T03:41:49.935Z,99553.38
2023-04-24T03:44:17.411Z,99557.78
2023-04-24T03:46:45.034Z,99537.56
2023-04-24T03:49:12.477Z,99538.44
2023-04-24T03:51:39.957Z,99537.56
2023-04-24T03:54:07.491Z,99528.75
2023-04-24T03:56:35.035Z,99512.06
2023-04-24T03:59:02.471Z,99516.41
2023-04-24T04:01:30.237Z,99532.22
2023-04-24T04:06:40.537Z,99538.38
2023-04-24T04:09:08.386Z,99541.03
2023-04-24T04:11:36.638Z,99542.78
2023-04-24T04:14:04.220Z,99540.16
2023-04-24T04:16:31.916Z,99520.81
2023-04-24T04:18:59.769Z,99524.31
2023-04-24T04:21:28.192Z,99513.75
2023-04-24T04:23:55.818Z,99523.41
2023-04-24T04:26:26.493Z,99531.31
2023-04-24T04:28:54.098Z,99537.50
2023-04-24T04:31:24.406Z,99528.69
2023-04-24T04:33:51.750Z,99517.28
2023-04-24T04:36:22.556Z,99510.25
2023-04-24T04:38:49.882Z,99495.31
2023-04-24T04:41:19.230Z,99490.03
2023-04-24T04:43:47.575Z,99492.69
2023-04-24T04:46:15.172Z,99485.63
2023-04-24T04:48:44.218Z,99485.66
2023-04-24T04:51:11.666Z,99483.88
2023-04-24T04:53:39.110Z,99477.75
2023-04-24T04:56:06.474Z,99469.81
2023-04-24T04:58:33.858Z,99467.19
2023-04-24T05:01:01.253Z,99468.09
2023-04-24T05:03:28.827Z,99455.78
2023-04-24T05:05:56.249Z,99453.13
2023-04-24T05:08:27.536Z,99454.00
2023-04-24T05:10:56.525Z,99443.47
2023-04-24T05:13:35.665Z,99432.91
2023-04-24T05:16:03.626Z,99448.75
2023-04-24T05:18:31.486Z,99447.00
2023-04-24T05:20:58.886Z,99454.91
2023-04-24T05:23:26.393Z,99456.66
2023-04-24T05:25:53.873Z,99473.38
2023-04-24T05:28:22.128Z,99476.00
2023-04-24T05:30:49.553Z,99486.56
2023-04-24T05:33:16.994Z,99488.31
2023-04-24T05:35:47.972Z,99483.03
2023-04-24T05:38:18.864Z,99497.09
2023-04-24T05:40:46.858Z,99503.25
2023-04-24T05:43:14.696Z,99516.44
2023-04-24T05:45:42.136Z,99531.38
2023-04-24T05:48:09.527Z,99540.19
2023-04-24T05:50:37.278Z,99548.09
2023-04-24T05:53:05.066Z,99557.78
2023-04-24T05:55:32.870Z,99586.81
2023-04-24T05:58:00.428Z,99598.25
2023-04-24T06:00:27.910Z,99616.72
2023-04-24T06:02:55.865Z,99626.38
2023-04-24T06:05:23.614Z,99640.47
2023-04-24T06:07:51.178Z,99662.47
2023-04-24T06:10:18.780Z,99674.75
2023-04-24T06:12:46.160Z,99709.94
2023-04-24T06:15:13.924Z,99742.44
2023-04-24T06:17:41.398Z,99767.91
2023-04-24T06:20:09.446Z,99796.84
2023-04-24T06:22:36.860Z,99810.84
2023-04-24T06:25:04.645Z,99787.06
2023-04-24T06:27:32.010Z,99795.84
2023-04-24T06:29:59.379Z,99802.88
2023-04-24T06:32:28.506Z,99814.31
2023-04-24T06:34:57.160Z,99835.41
2023-04-24T06:37:25.751Z,99845.09
2023-04-24T06:39:53.208Z,99831.88
2023-04-24T06:42:22.060Z,99816.09
2023-04-24T06:44:49.590Z,99809.09
2023-04-24T06:47:17.237Z,99785.38
2023-04-24T06:49:44.965Z,99771.25
2023-04-24T06:52:12.756Z,99756.38
2023-04-24T06:54:40.189Z,99732.66
2023-04-24T06:57:07.734Z,99739.78
2023-04-24T06:59:35.283Z,99738.09
2023-04-24T07:02:02.726Z,99729.31
2023-04-24T07:04:30.607Z,99717.91
2023-04-24T07:06:58.976Z,99717.03
2023-04-24T07:09:27.173Z,99716.16
2023-04-24T07:11:54.938Z,99709.13
2023-04-24T07:14:22.570Z,99685.34
2023-04-24T07:16:50.516Z,99670.41
2023-04-24T07:19:18.018Z,99678.31
2023-04-24T07:21:45.777Z,99683.56
2023-04-24T07:24:14.015Z,99662.44
2023-04-24T07:26:41.513Z,99655.41
2023-04-24T07:29:09.354Z,99650.94
2023-04-24T07:31:37.061Z,99633.25
2023-04-24T07:34:04.615Z,99594.47
2023-04-24T07:36:33.369Z,99597.88
2023-04-24T07:39:00.990Z,99576.84
2023-04-24T07:41:29.225Z,99548.69
2023-04-24T07:43:56.613Z,99557.38
2023-04-24T07:46:24.654Z,99529.16
2023-04-24T07:49:02.095Z,99543.97
2023-04-24T07:51:39.552Z,99536.06
2023-04-24T07:54:07.227Z,99513.06
2023-04-24T07:56:35.016Z,99526.88
2023-04-24T07:59:02.637Z,99563.31
2023-04-24T08:01:30.158Z,99528.88
2023-04-24T08:03:57.707Z,99495.75
2023-04-24T08:06:26.901Z,99471.97
2023-04-24T08:08:54.344Z,99431.59
2023-04-24T08:11:23.036Z,99413.16
2023-04-24T08:13:52.254Z,99428.88
2023-04-24T08:16:19.950Z,99410.34
2023-04-24T08:18:47.506Z,99373.59
2023-04-24T08:21:18.261Z,99403.41
2023-04-24T08:23:46.701Z,99442.66
2023-04-24T08:26:14.371Z,99471.06
2023-04-24T08:28:41.883Z,99415.72
2023-04-24T08:31:09.380Z,99390.63
2023-04-24T08:33:36.963Z,99388.91
2023-04-24T08:36:06.437Z,99365.22
2023-04-24T08:38:34.833Z,99379.34
2023-04-24T08:41:03.189Z,99358.38
2023-04-24T08:43:30.744Z,99368.91
2023-04-24T08:46:00.366Z,99366.16
2023-04-24T08:48:31.552Z,99354.81
2023-04-24T08:50:59.960Z,99363.69
2023-04-24T08:53:28.120Z,99338.38
2023-04-24T08:55:57.837Z,99305.06
2023-04-24T08:58:28.395Z,99312.88
2023-04-24T09:00:56.864Z,99314.75
2023-04-24T09:03:24.862Z,99320.06
2023-04-24T09:05:53.708Z,99326.13
2023-04-24T09:08:21.895Z,99345.44
2023-04-24T09:10:51.201Z,99349.91
2023-04-24T09:13:21.405Z,99349.16
2023-04-24T09:15:49.164Z,99331.56
2023-04-24T09:18:16.707Z,99332.41
2023-04-24T09:21:07.899Z,99388.88
2023-04-24T09:23:35.510Z,99374.72
2023-04-24T09:26:06.193Z,99326.41
2023-04-24T09:28:41.797Z,99314.75
2023-04-24T09:31:11.561Z,99253.06
2023-04-24T09:33:39.166Z,99306.28
2023-04-24T09:36:07.389Z,99305.22
2023-04-24T09:38:39.693Z,99286.06
2023-04-24T09:41:09.150Z,99286.75
2023-04-24T09:43:36.900Z,99234.09
2023-04-24T09:46:10.694Z,99232.53
2023-04-24T09:48:38.884Z,99259.06
2023-04-24T09:51:12.413Z,99265.56
2023-04-24T09:53:43.160Z,99268.44
2023-04-24T09:56:11.796Z,99286.13
2023-04-24T09:58:39.200Z,99319.41
2023-04-24T10:01:06.893Z,99306.25
2023-04-24T10:03:35.566Z,99278.38
2023-04-24T10:06:10.202Z,99288.28
2023-04-24T10:08:38.774Z,99320.88
2023-04-24T10:11:06.492Z,99322.50
2023-04-24T10:13:34.368Z,99350.78
2023-04-24T10:16:04.199Z,99410.00
2023-04-24T10:18:33.406Z,99381.75
2023-04-24T10:21:01.554Z,99382.41
2023-04-24T10:23:31.335Z,99364.00
2023-04-24T10:25:58.804Z,99356.16
2023-04-24T10:28:26.451Z,99392.03
2023-04-24T10:30:56.412Z,99370.31
2023-04-24T10:33:24.629Z,99376.84
2023-04-24T10:35:53.165Z,99369.03
2023-04-24T10:38:26.317Z,99363.97
2023-04-24T10:40:58.543Z,99329.13
2023-04-24T10:43:25.971Z,99342.00
2023-04-24T10:46:04.749Z,99292.97
2023-04-24T10:48:33.468Z,99304.16
2023-04-24T10:51:00.968Z,99273.84
2023-04-24T10:53:31.446Z,99342.69
2023-04-24T10:56:06.798Z,99351.00
2023-04-24T10:58:59.508Z,99351.81
2023-04-24T11:01:32.035Z,99316.13
2023-04-24T11:04:04.501Z,99295.03
2023-04-24T11:06:38.901Z,99330.44
2023-04-24T11:09:09.348Z,99299.09
2023-04-24T11:11:38.610Z,99223.75
2023-04-24T11:14:08.129Z,99225.13
2023-04-24T11:16:56.356Z,99257.13
2023-04-24T11:19:29.668Z,99243.22
2023-04-24T11:22:03.855Z,99141.63
2023-04-24T11:24:40.795Z,99231.75
2023-04-24T11:27:20.677Z,99175.09
2023-04-24T11:30:04.934Z,99105.25
2023-04-24T11:32:38.696Z,99108.94
2023-04-24T11:35:25.953Z,99078.91
2023-04-24T11:40:26.635Z,99099.19
2023-04-24T11:42:58.022Z,99061.09
2023-04-24T11:45:28.240Z,99036.16
2023-04-24T11:47:56.017Z,99030.22
2023-04-24T11:50:27.163Z,99029.19
2023-04-24T11:52:54.826Z,99024.16
2023-04-24T11:55:22.251Z,99071.53
2023-04-24T11:57:52.036Z,99033.28
2023-04-24T12:00:22.000Z,98982.84
2023-04-24T12:02:50.537Z,98940.09
2023-04-24T12:05:27.254Z,99000.03
2023-04-24T12:07:55.202Z,98921.75
2023-04-24T12:10:28.168Z,98970.66
2023-04-24T12:12:56.813Z,98889.19
2023-04-24T12:15:24.709Z,98873.22
2023-04-24T12:17:56.542Z,98852.97
2023-04-24T12:20:33.535Z,98863.50
2023-04-24T12:23:02.528Z,98820.41
2023-04-24T12:25:32.976Z,98812.53
2023-04-24T12:28:06.960Z,98898.94
2023-04-24T12:30:42.534Z,98912.97
2023-04-24T12:33:10.188Z,98898.25
2023-04-24T12:35:37.990Z,98824.16
2023-04-24T12:38:10.093Z,98835.81
2023-04-24T12:40:37.383Z,98813.44
2023-04-24T12:43:18.679Z,98864.34
2023-04-24T12:45:46.718Z,98830.03
2023-04-24T12:48:17.132Z,98734.31
2023-04-24T12:50:47.059Z,98798.63
2023-04-24T12:53:15.820Z,98760.56
2023-04-24T12:55:43.437Z,98701.19
2023-04-24T12:58:10.948Z,98715.94
2023-04-24T13:00:39.389Z,98702.16
2023-04-24T13:03:07.172Z,98748.78
2023-04-24T13:05:34.682Z,98806.94
2023-04-24T13:08:02.145Z,98695.69
2023-04-24T13:10:29.900Z,98745.28
2023-04-24T13:12:57.572Z,98761.03
2023-04-24T13:15:25.810Z,98730.97
2023-04-24T13:17:53.398Z,98658.63
2023-04-24T13:20:20.898Z,98690.13
2023-04-24T13:22:48.459Z,98674.25
2023-04-24T13:25:18.148Z,98632.53
2023-04-24T13:27:45.813Z,98609.78
2023-04-24T13:30:13.520Z,98620.66
2023-04-24T13:32:41.168Z,98570.44
2023-04-24T13:35:08.921Z,98487.59
2023-04-24T13:37:36.371Z,98490.03
2023-04-24T13:40:07.156Z,98500.41
2023-04-24T13:42:34.863Z,98518.06
2023-04-24T13:45:11.088Z,98582.75
2023-04-24T13:47:51.877Z,98549.22
2023-04-24T13:50:19.814Z,98447.75
2023-04-24T13:52:47.372Z,98511.41
2023-04-24T13:55:14.896Z,98504.47
2023-04-24T13:57:42.310Z,98488.97
2023-04-24T14:00:11.752Z,98608.69
2023-04-24T14:02:39.084Z,98699.00
2023-04-24T14:05:07.723Z,98660.28
2023-04-24T14:07:34.884Z,98684.94
2023-04-24T14:10:02.315Z,98603.59
2023-04-24T14:12:29.852Z,98585.78
2023-04-24T14:14:57.253Z,98522.00
2023-04-24T14:17:24.858Z,98518.41
2023-04-24T14:19:53.221Z,98512.84
2023-04-24T14:22:21.351Z,98525.44
2023-04-24T14:24:48.915Z,98591.59
2023-04-24T14:27:16.381Z,98826.94
2023-04-24T14:29:43.836Z,99040.78
2023-04-24T14:32:11.333Z,99067.09
2023-04-24T14:34:38.841Z,99053.25
2023-04-24T14:37:06.842Z,99001.59
2023-04-24T14:39:34.265Z,98901.44
2023-04-24T14:42:02.558Z,98791.06
2023-04-24T14:44:29.640Z,98711.00
2023-04-24T14:46:56.686Z,98758.41
2023-04-24T14:49:24.881Z,98712.03
2023-04-24T14:51:52.303Z,98656.28
2023-04-24T14:54:19.393Z,98704.81
2023-04-24T14:56:46.862Z,98692.94
2023-04-24T14:59:14.616Z,98671.50
2023-04-24T15:01:42.395Z,98640.56
2023-04-24T15:04:10.255Z,98685.47
2023-04-24T15:06:37.976Z,98708.69
2023-04-24T15:09:05.705Z,98742.00
2023-04-24T15:11:33.939Z,98789.19
2023-04-24T15:14:01.994Z,98833.97
2023-04-24T15:16:29.643Z,98926.66
2023-04-24T15:18:58.242Z,98987.03
2023-04-24T15:21:25.842Z,98985.88
2023-04-24T15:23:53.262Z,99065.41
2023-04-24T15:26:25.438Z,99006.09
2023-04-24T15:28:53.485Z,98991.47
2023-04-24T15:31:21.562Z,98964.66
2023-04-24T15:33:50.755Z,98827.94
2023-04-24T15:36:19.019Z,98744.66
2023-04-24T15:38:46.737Z,98650.53
2023-04-24T15:41:14.307Z,98683.88
2023-04-24T15:43:42.377Z,98634.00
2023-04-24T15:46:09.955Z,98679.00
2023-04-24T15:48:39.456Z,98734.34
2023-04-24T15:51:07.010Z,98658.88
2023-04-24T15:53:34.573Z,98646.34
2023-04-24T15:56:02.105Z,98631.03
2023-04-24T15:58:29.586Z,98500.91
2023-04-24T16:00:57.218Z,98543.78
2023-04-24T16:03:25.602Z,98588.91
2023-04-24T16:05:54.206Z,98541.94
2023-04-24T16:08:22.522Z,98521.25
2023-04-24T16:10:50.493Z,98514.38
2023-04-24T16:13:18.998Z,98471.47
2023-04-24T16:15:46.912Z,98527.00
2023-04-24T16:18:14.849Z,98520.25
2023-04-24T16:20:42.290Z,98534.19
2023-04-24T16:23:39.428Z,98497.44
2023-04-24T16:26:06.920Z,98476.94
2023-04-24T16:28:34.403Z,98452.69
2023-04-24T16:31:02.265Z,98417.25
2023-04-24T16:33:29.768Z,98428.28
2023-04-24T16:35:57.360Z,98406.72
2023-04-24T16:38:26.679Z,98348.38
2023-04-24T16:40:54.228Z,98324.28
2023-04-24T16:43:21.696Z,98376.16
2023-04-24T16:45:49.181Z,98344.00
2023-04-24T16:48:16.744Z,98275.50
2023-04-24T16:50:44.112Z,98352.28
2023-04-24T16:53:11.962Z,98345.13
2023-04-24T16:55:39.746Z,98288.78
2023-04-24T16:58:07.347Z,98315.50
2023-04-24T17:00:35.492Z,98237.13
2023-04-24T17:03:03.068Z,98222.41
2023-04-24T17:05:32.861Z,98270.53
2023-04-24T17:08:00.450Z,98254.75
2023-04-24T17:10:28.074Z,98290.56
2023-04-24T17:12:55.748Z,98323.13
2023-04-24T17:15:23.143Z,98336.75
2023-04-24T17:17:51.090Z,98390.34
2023-04-24T17:20:22.859Z,98391.06
2023-04-24T17:22:51.397Z,98410.97
2023-04-24T17:25:18.948Z,98422.81
2023-04-24T17:30:38.922Z,98474.13
2023-04-24T17:33:09.155Z,98503.03
2023-04-24T17:35:36.490Z,98516.66
2023-04-24T17:38:03.886Z,98521.22
2023-04-24T17:40:34.717Z,98518.22
2023-04-24T17:43:02.005Z,98566.63
2023-04-24T17:45:29.374Z,98606.78
2023-04-24T17:47:57.242Z,98635.72
2023-04-24T17:50:24.735Z,98669.84
2023-04-24T17:52:51.694Z,98712.41
2023-04-24T17:55:19.084Z,98742.38
2023-04-24T17:57:46.402Z,98742.91
2023-04-24T18:00:14.381Z,98697.44
2023-04-24T18:02:41.806Z,98669.13
2023-04-24T18:05:09.319Z,98641.38
2023-04-24T18:07:36.974Z,98652.63
2023-04-24T18:10:04.560Z,98647.34
2023-04-24T18:12:31.898Z,98649.41
2023-04-24T18:15:12.977Z,98646.97
2023-04-24T18:17:41.758Z,98658.50
2023-04-24T18:20:09.695Z,98672.56
2023-04-24T18:22:37.257Z,98682.38
2023-04-24T18:25:05.021Z,98687.81
2023-04-24T18:27:32.383Z,98692.22
2023-04-24T18:30:00.165Z,98710.03
2023-04-24T18:32:27.910Z,98724.25
2023-04-24T18:34:55.520Z,98746.53
2023-04-24T18:37:22.999Z,98758.91
2023-04-24T18:39:50.733Z,98772.31
2023-04-24T18:42:18.535Z,98782.06
2023-04-24T18:44:46.226Z,98782.09
2023-04-24T18:47:13.713Z,98808.47
2023-04-24T18:49:41.096Z,98813.88
2023-04-24T18:52:08.053Z,98831.50
2023-04-24T18:55:07.632Z,98851.81
2023-04-24T18:57:37.772Z,98861.50
2023-04-24T19:00:06.251Z,98870.34
2023-04-24T19:02:34.790Z,98878.38
2023-04-24T19:05:02.419Z,98871.50
2023-04-24T19:07:29.478Z,98901.34
2023-04-24T19:09:56.521Z,98905.97
2023-04-24T19:12:23.937Z,98918.53
2023-04-24T19:14:52.061Z,98944.38
2023-04-24T19:17:23.656Z,98979.78
2023-04-24T19:19:51.375Z,99002.03
2023-04-24T19:22:20.730Z,99018.09
2023-04-24T19:24:48.223Z,99038.38
2023-04-24T19:27:15.631Z,99057.88
2023-04-24T19:29:43.044Z,99077.22
2023-04-24T19:32:11.594Z,99079.00
2023-04-24T19:34:40.611Z,99084.97
2023-04-24T19:37:08.512Z,99076.06
2023-04-24T19:39:35.855Z,99068.13
2023-04-24T19:42:07.256Z,99063.75
2023-04-24T19:44:35.136Z,99044.28
2023-04-24T19:47:05.355Z,99049.72
2023-04-24T19:49:32.678Z,99043.66
2023-04-24T19:52:00.207Z,99049.75
2023-04-24T19:54:27.965Z,99053.31
2023-04-24T19:56:56.019Z,99053.34
2023-04-24T19:59:23.368Z,99061.34
2023-04-24T20:01:51.604Z,99066.66
2023-04-24T20:04:23.221Z,99076.25
2023-04-24T20:06:51.325Z,99066.56
2023-04-24T20:09:18.705Z,99066.53
2023-04-24T20:11:47.695Z,99067.53
2023-04-24T20:14:15.090Z,99072.72
2023-04-24T20:16:42.451Z,99069.41
2023-04-24T20:19:09.808Z,99089.72
2023-04-24T20:21:37.287Z,99101.22
2023-04-24T20:24:06.732Z,99109.09
2023-04-24T20:26:33.674Z,99115.28
2023-04-24T20:29:01.001Z,99117.09
2023-04-24T20:31:28.416Z,99130.34
2023-04-24T20:33:55.869Z,99141.78
2023-04-24T20:36:23.400Z,99140.88
2023-04-24T20:38:51.829Z,99149.75
2023-04-24T20:41:19.508Z,99151.53
2023-04-24T20:43:46.526Z,99150.66
2023-04-24T20:46:13.862Z,99150.59
2023-04-24T20:48:41.222Z,99152.41
2023-04-24T20:51:08.656Z,99143.50
2023-04-24T20:53:36.058Z,99145.34
2023-04-24T20:56:03.781Z,99142.75
2023-04-24T20:58:31.206Z,99147.13
2023-04-24T21:00:58.613Z,99140.00
2023-04-24T21:03:27.443Z,99142.66
2023-04-24T21:05:54.943Z,99148.84
2023-04-24T21:08:22.345Z,99147.16
2023-04-24T21:10:49.779Z,99159.44
2023-04-24T21:13:17.131Z,99155.03
2023-04-24T21:15:44.549Z,99152.41
2023-04-24T21:18:11.905Z,99163.03
2023-04-24T21:20:39.325Z,99163.03
2023-04-24T21:23:06.687Z,99148.94
2023-04-24T21:25:37.482Z,99159.53
2023-04-24T21:28:04.960Z,99171.00
2023-04-24T21:30:32.076Z,99168.38
2023-04-24T21:32:59.468Z,99165.75
2023-04-24T21:35:26.862Z,99160.53
2023-04-24T21:37:54.277Z,99156.09
2023-04-24T21:40:21.655Z,99148.25
2023-04-24T21:42:48.978Z,99133.28
2023-04-24T21:45:16.329Z,99134.19
2023-04-24T21:47:43.796Z,99142.09
2023-04-24T21:50:11.749Z,99128.88
2023-04-24T21:52:39.085Z,99112.19
2023-04-24T21:55:06.873Z,99108.69
2023-04-24T21:57:34.599Z,99110.47
2023-04-24T22:00:02.217Z,99109.63
2023-04-24T22:02:29.737Z,99123.72
2023-04-24T22:04:57.575Z,99128.16
2023-04-24T22:07:24.929Z,99143.19
2023-04-24T22:09:52.303Z,99139.72
2023-04-24T22:12:19.661Z,99137.09
2023-04-24T22:14:47.086Z,99142.38
2023-04-24T22:17:15.283Z,99134.44
2023-04-24T22:19:43.712Z,99130.09
2023-04-24T22:22:11.055Z,99132.72
2023-04-24T22:24:38.573Z,99131.00
2023-04-24T22:27:06.192Z,99136.31
2023-04-24T22:29:33.197Z,99159.19
2023-04-24T22:32:01.155Z,99161.81
2023-04-24T22:34:28.634Z,99167.09
2023-04-24T22:36:55.990Z,99179.44
2023-04-24T22:39:23.514Z,99169.78
2023-04-24T22:41:50.925Z,99175.94
2023-04-24T22:44:18.337Z,99158.38
2023-04-24T22:46:46.217Z,99166.31
2023-04-24T22:49:16.525Z,99175.09
2023-04-24T22:51:44.092Z,99176.88
2023-04-24T22:54:11.519Z,99176.00
2023-04-24T22:56:38.936Z,99179.53
2023-04-24T22:59:06.794Z,99183.91
2023-04-24T23:01:34.196Z,99187.44
2023-04-24T23:04:01.776Z,99197.13
2023-04-24T23:06:29.210Z,99212.97
2023-04-24T23:08:56.587Z,99214.75
2023-04-24T23:11:24.075Z,99235.88
2023-04-24T23:13:51.837Z,99236.81
2023-04-24T23:16:19.373Z,99249.13
2023-04-24T23:18:46.984Z,99253.50
2023-04-24T23:21:14.320Z,99250.88
2023-04-24T23:23:41.798Z,99250.03
2023-04-24T23:26:09.214Z,99270.25
2023-04-24T23:28:37.578Z,99279.88
2023-04-24T23:31:05.045Z,99292.16
2023-04-24T23:33:32.493Z,99296.56
2023-04-24T23:35:59.970Z,99287.81
2023-04-24T23:38:30.093Z,99294.84
2023-04-24T23:41:01.952Z,99314.22
2023-04-24T23:43:29.366Z,99338.78
2023-04-24T23:45:56.885Z,99337.94
2023-04-24T23:48:24.653Z,99345.00
2023-04-24T23:50:52.167Z,99352.91
2023-04-24T23:53:19.716Z,99356.44
2023-04-24T23:55:47.098Z,99362.56
2023-04-24T23:58:14.445Z,99364.31
